Airport View

Enter AWOS ICAO identifier for current METAR.

ex. KFNL

KBOI 202153Z 32009KT 10SM OVC080 16/03 A3005 RMK AO2 SLP166 T01610033

20 Oct 2020 22:34

Phone: 208-388-4640

Other Area AWOS: KMAN - KEUL - KMUO - KONO

TAF KBOI 201720Z 2018/2118 31008KT P6SM SCT080 BKN200 FM210300 VRB05KT P6SM SCT080 BKN200 FM211000 14005KT P6SM BKN060